createdAt,value
2018-07-26T00:07:49.410Z,86.44
2018-07-26T00:08:49.232Z,86.82
2018-07-26T00:09:49.181Z,86.63
2018-07-26T00:10:49.097Z,86.59
2018-07-26T00:11:49.095Z,87.31
2018-07-26T00:12:48.986Z,87.50
2018-07-26T00:13:48.899Z,87.65
2018-07-26T00:14:48.783Z,87.75
2018-07-26T00:15:48.811Z,88.09
2018-07-26T00:16:48.659Z,87.50
2018-07-26T00:17:48.619Z,87.70
2018-07-26T00:18:48.477Z,87.55
2018-07-26T00:19:48.425Z,87.27
2018-07-26T00:20:48.397Z,87.27
2018-07-26T00:21:48.336Z,86.98
2018-07-26T00:22:48.186Z,88.13
2018-07-26T00:23:48.140Z,87.36
2018-07-26T00:24:48.031Z,87.31
2018-07-26T00:25:49.016Z,86.63
2018-07-26T00:26:47.883Z,86.44
2018-07-26T00:27:47.865Z,86.34
2018-07-26T00:28:47.727Z,87.70
2018-07-26T00:31:29.658Z,86.92
2018-07-26T00:32:29.667Z,86.82
2018-07-26T00:33:29.497Z,86.54
2018-07-26T00:34:29.436Z,86.73
2018-07-26T00:35:29.427Z,87.31
2018-07-26T00:36:30.348Z,86.92
2018-07-26T00:37:29.194Z,86.63
2018-07-26T00:38:29.192Z,87.12
2018-07-26T00:39:29.055Z,87.02
2018-07-26T00:40:29.012Z,87.41
2018-07-26T00:41:28.917Z,87.89
2018-07-26T00:44:11.152Z,87.12
2018-07-26T00:45:32.070Z,87.02
2018-07-26T00:46:11.141Z,87.21
2018-07-26T00:47:10.955Z,87.36
2018-07-26T00:48:10.944Z,87.95
2018-07-26T00:49:10.773Z,87.55
2018-07-26T00:50:10.743Z,88.13
2018-07-26T00:51:10.622Z,88.71
2018-07-26T00:52:10.703Z,88.43
2018-07-26T00:53:10.499Z,88.91
2018-07-26T00:54:10.464Z,88.23
2018-07-26T00:55:10.329Z,88.33
2018-07-26T00:56:10.284Z,88.43
2018-07-26T00:57:10.178Z,89.11
2018-07-26T00:58:10.181Z,88.62
2018-07-26T00:59:10.044Z,89.01
2018-07-26T01:00:09.950Z,88.33
2018-07-26T01:01:09.872Z,88.33
2018-07-26T01:03:52.196Z,89.49
2018-07-26T01:04:52.218Z,89.78
2018-07-26T01:05:52.002Z,90.17
2018-07-26T01:06:52.013Z,90.46
2018-07-26T01:07:51.855Z,90.12
2018-07-26T01:08:51.865Z,89.54
2018-07-26T01:09:51.702Z,90.03
2018-07-26T01:10:51.734Z,89.93
2018-07-26T01:11:51.561Z,89.88
2018-07-26T01:12:51.537Z,89.39
2018-07-26T01:13:51.417Z,89.59
2018-07-26T01:14:51.352Z,89.97
2018-07-26T01:15:51.251Z,90.12
2018-07-26T01:16:51.262Z,90.90
2018-07-26T01:17:51.096Z,91.19
2018-07-26T01:18:51.096Z,91.62
2018-07-26T01:32:13.609Z,89.93
2018-07-26T01:33:13.439Z,89.74
2018-07-26T01:34:13.349Z,89.78
2018-07-26T01:35:13.253Z,88.62
2018-07-26T01:36:13.339Z,88.33
2018-07-26T01:37:13.102Z,87.85
2018-07-26T01:38:13.125Z,87.55
2018-07-26T01:39:13.099Z,87.55
2018-07-26T01:40:12.956Z,88.13
2018-07-26T01:41:12.799Z,88.81
2018-07-26T01:43:54.686Z,89.69
2018-07-26T01:44:54.644Z,89.59
2018-07-26T01:45:54.524Z,89.78
2018-07-26T01:46:54.528Z,90.12
2018-07-26T01:47:54.368Z,90.22
2018-07-26T01:48:54.349Z,90.80
2018-07-26T01:49:54.238Z,91.19
2018-07-26T01:50:54.289Z,91.38
2018-07-26T01:51:54.121Z,91.48
2018-07-26T01:52:54.057Z,91.38
2018-07-26T01:53:53.923Z,91.67
2018-07-26T01:54:53.859Z,90.22
2018-07-26T01:55:53.753Z,90.12
2018-07-26T01:56:54.842Z,91.28
2018-07-26T01:57:53.622Z,91.09
2018-07-26T01:58:53.585Z,91.48
2018-07-26T01:59:53.451Z,91.58
2018-07-26T02:00:53.497Z,91.38
2018-07-26T02:01:53.338Z,91.38
2018-07-26T02:02:53.306Z,91.86
2018-07-26T02:03:53.154Z,91.67
2018-07-26T02:06:35.242Z,92.49
2018-07-26T02:07:35.664Z,93.17
2018-07-26T02:08:35.068Z,92.49
2018-07-26T02:09:35.673Z,92.98
2018-07-26T02:10:34.887Z,92.98
2018-07-26T02:13:17.231Z,91.91
2018-07-26T02:14:17.125Z,92.11
2018-07-26T02:15:17.024Z,92.88
2018-07-26T02:16:17.087Z,92.69
2018-07-26T02:17:16.900Z,92.69
2018-07-26T02:18:16.840Z,92.98
2018-07-26T02:19:16.723Z,92.98
2018-07-26T02:20:16.709Z,93.66
2018-07-26T02:21:16.569Z,93.75
2018-07-26T02:22:16.572Z,93.56
2018-07-26T02:23:16.431Z,93.85
2018-07-26T02:24:16.379Z,93.75
2018-07-26T02:25:16.261Z,93.66
2018-07-26T02:26:17.255Z,94.04
2018-07-26T02:27:16.121Z,93.75
2018-07-26T02:28:17.154Z,93.85
2018-07-26T02:29:15.967Z,94.14
2018-07-26T02:30:16.002Z,94.24
2018-07-26T02:31:15.827Z,94.62
2018-07-26T02:32:15.816Z,95.30
2018-07-26T02:33:15.660Z,95.59
2018-07-26T02:34:15.640Z,95.20
2018-07-26T02:35:15.506Z,94.91
2018-07-26T02:36:15.580Z,95.06
2018-07-26T02:37:15.364Z,95.59
2018-07-26T02:38:15.343Z,95.30
2018-07-26T02:39:15.211Z,95.30
2018-07-26T02:40:15.162Z,95.40
2018-07-26T02:41:15.075Z,95.20
2018-07-26T02:42:15.098Z,95.68
2018-07-26T02:43:14.896Z,95.06
2018-07-26T02:44:14.871Z,95.49
2018-07-26T02:45:14.774Z,95.20
2018-07-26T02:46:14.785Z,95.73
2018-07-26T02:47:14.624Z,96.61
2018-07-26T02:48:14.587Z,97.67
2018-07-26T02:49:14.454Z,97.57
2018-07-26T02:50:14.401Z,96.89
2018-07-26T02:51:14.296Z,97.77
2018-07-26T02:52:14.351Z,97.23
2018-07-26T02:53:14.158Z,96.80
2018-07-26T02:54:14.117Z,97.67
2018-07-26T02:55:13.999Z,97.09
2018-07-26T02:57:56.316Z,97.57
2018-07-26T02:58:56.230Z,97.77
2018-07-26T02:59:56.051Z,97.67
2018-07-26T03:00:56.151Z,98.54
2018-07-26T03:01:55.909Z,99.02
2018-07-26T03:02:55.854Z,98.97
2018-07-26T03:03:55.729Z,99.36
2018-07-26T03:04:55.770Z,98.78
2018-07-26T03:05:55.577Z,98.10
2018-07-26T03:06:56.640Z,98.73
2018-07-26T03:07:55.441Z,98.44
2018-07-26T03:08:55.416Z,98.44
2018-07-26T03:09:55.279Z,98.05
2018-07-26T03:10:55.292Z,98.25
2018-07-26T03:11:55.126Z,98.25
2018-07-26T03:12:55.099Z,97.57
2018-07-26T03:13:54.967Z,96.99
2018-07-26T03:14:55.964Z,96.51
2018-07-26T03:15:54.813Z,96.61
2018-07-26T03:16:54.817Z,96.61
2018-07-26T03:17:54.680Z,96.12
2018-07-26T03:18:54.626Z,96.80
2018-07-26T03:19:54.556Z,96.31
2018-07-26T03:20:54.548Z,96.80
2018-07-26T03:21:54.407Z,97.38
2018-07-26T03:22:54.386Z,96.99
2018-07-26T03:23:54.213Z,97.19
2018-07-26T03:24:55.210Z,96.51
2018-07-26T03:25:54.060Z,97.19
2018-07-26T03:26:54.067Z,97.96
2018-07-26T03:27:53.903Z,97.77
2018-07-26T03:28:53.908Z,97.86
2018-07-26T03:29:53.749Z,96.89
2018-07-26T03:30:53.779Z,97.77
2018-07-26T03:31:53.592Z,97.86
2018-07-26T03:32:53.596Z,96.80
2018-07-26T03:33:53.477Z,97.09
2018-07-26T03:34:53.444Z,97.67
2018-07-26T03:35:53.296Z,98.25
2018-07-26T03:38:35.230Z,97.96
2018-07-26T03:39:35.242Z,98.35
2018-07-26T03:40:35.059Z,98.44
2018-07-26T03:41:35.015Z,98.58
2018-07-26T03:42:34.907Z,98.68
2018-07-26T03:43:34.957Z,99.99
2018-07-26T03:44:34.772Z,99.65
2018-07-26T04:08:16.789Z,99.99
2018-07-26T04:09:16.633Z,99.99
2018-07-26T04:10:16.568Z,99.99
2018-07-26T04:11:16.509Z,99.99
2018-07-26T04:13:58.774Z,99.99
2018-07-26T04:14:58.648Z,99.99
2018-07-26T04:15:58.559Z,99.99
2018-07-26T04:16:58.499Z,99.99
2018-07-26T04:17:58.408Z,99.99
2018-07-26T04:18:58.338Z,99.99
2018-07-26T04:19:58.263Z,99.99
2018-07-26T04:20:58.212Z,99.99
2018-07-26T04:21:58.122Z,99.99
2018-07-26T04:22:58.126Z,99.99
2018-07-26T04:23:57.956Z,99.99
2018-07-26T04:24:57.882Z,99.99
2018-07-26T04:25:57.825Z,99.99
2018-07-26T04:26:57.769Z,99.99
2018-07-26T04:27:57.658Z,99.99
2018-07-26T04:28:57.657Z,99.99
2018-07-26T04:29:57.492Z,99.99
2018-07-26T04:30:57.466Z,99.99
2018-07-26T04:31:57.398Z,99.99
2018-07-26T04:32:57.369Z,99.99
2018-07-26T04:33:57.191Z,99.99
2018-07-26T04:34:57.184Z,99.99
2018-07-26T04:35:57.056Z,99.99
2018-07-26T04:36:57.221Z,99.99
2018-07-26T04:37:56.890Z,99.99
2018-07-26T04:38:56.900Z,99.99
2018-07-26T04:42:20.365Z,99.99
2018-07-26T04:43:20.257Z,99.94
2018-07-26T04:44:20.196Z,99.94
2018-07-26T04:45:20.104Z,99.36
2018-07-26T04:46:20.071Z,99.94
2018-07-26T04:47:19.966Z,99.55
2018-07-26T04:48:19.895Z,99.65
2018-07-26T04:49:19.796Z,99.46
2018-07-26T04:52:01.728Z,98.88
2018-07-26T04:53:02.686Z,98.58
2018-07-26T04:54:01.583Z,99.16
2018-07-26T04:55:01.514Z,98.88
2018-07-26T04:56:01.424Z,98.88
2018-07-26T04:57:01.360Z,98.39
2018-07-26T04:58:01.283Z,97.72
2018-07-26T05:00:43.234Z,97.33
2018-07-26T05:01:43.158Z,97.23
2018-07-26T05:02:43.070Z,97.91
2018-07-26T05:03:43.056Z,97.81
2018-07-26T05:04:42.931Z,97.81
2018-07-26T05:05:42.847Z,97.81
2018-07-26T05:06:42.774Z,97.62
2018-07-26T05:07:42.702Z,97.91
2018-07-26T05:08:42.654Z,98.39
2018-07-26T05:09:42.568Z,98.78
2018-07-26T05:10:42.474Z,99.65
2018-07-26T05:11:42.415Z,99.69
2018-07-26T05:12:42.343Z,99.79
2018-07-26T05:13:42.273Z,99.99
2018-07-26T05:14:42.175Z,99.31
2018-07-26T05:15:42.100Z,99.31
2018-07-26T05:16:42.019Z,99.41
2018-07-26T05:17:41.940Z,99.21
2018-07-26T05:18:41.874Z,98.97
2018-07-26T05:19:41.803Z,98.39
2018-07-26T05:20:41.714Z,97.72
2018-07-26T05:21:41.641Z,97.72
2018-07-26T05:22:41.550Z,97.62
2018-07-26T05:25:23.752Z,96.99
2018-07-26T05:26:23.664Z,95.93
2018-07-26T05:27:23.634Z,95.15
2018-07-26T05:28:23.528Z,95.06
2018-07-26T05:29:23.442Z,95.25
2018-07-26T05:30:23.377Z,94.28
2018-07-26T05:31:23.281Z,94.57
2018-07-26T05:32:23.220Z,93.80
2018-07-26T05:33:23.142Z,93.99
2018-07-26T05:34:23.193Z,94.18
2018-07-26T05:35:22.977Z,93.70
2018-07-26T05:36:22.917Z,93.41
2018-07-26T05:37:22.837Z,93.51
2018-07-26T05:40:04.760Z,93.51
2018-07-26T05:41:04.679Z,92.93
2018-07-26T05:42:04.589Z,91.38
2018-07-26T05:43:04.589Z,91.77
2018-07-26T05:44:04.436Z,91.82
2018-07-26T05:45:05.388Z,91.62
2018-07-26T05:46:04.315Z,91.72
2018-07-26T05:47:04.238Z,91.24
2018-07-26T05:48:04.136Z,90.75
2018-07-26T05:49:04.071Z,90.94
2018-07-26T05:50:03.984Z,91.38
2018-07-26T05:51:03.951Z,90.56
2018-07-26T05:52:03.834Z,90.75
2018-07-26T05:53:03.767Z,90.90
2018-07-26T05:54:03.683Z,89.97
2018-07-26T05:55:03.651Z,90.26
2018-07-26T05:56:03.583Z,90.17
2018-07-26T05:57:03.463Z,89.69
2018-07-26T05:58:03.423Z,89.59
2018-07-26T06:00:45.254Z,88.71
2018-07-26T06:01:46.316Z,88.76
2018-07-26T06:02:45.119Z,88.95
2018-07-26T06:03:45.083Z,88.37
2018-07-26T06:04:44.981Z,88.03
2018-07-26T06:05:45.025Z,87.31
2018-07-26T06:06:44.830Z,86.73
2018-07-26T06:07:44.791Z,86.48
2018-07-26T06:08:44.657Z,87.12
2018-07-26T06:09:44.646Z,88.09
2018-07-26T06:10:44.504Z,87.89
2018-07-26T06:11:44.571Z,88.57
2018-07-26T06:12:44.349Z,88.37
2018-07-26T06:13:44.324Z,89.69
2018-07-26T06:14:44.227Z,89.59
2018-07-26T06:15:44.275Z,88.85
2018-07-26T06:16:44.073Z,88.67
2018-07-26T06:17:44.049Z,88.51
2018-07-26T06:18:43.908Z,86.87
2018-07-26T06:19:43.946Z,87.45
2018-07-26T06:20:43.798Z,86.87
2018-07-26T06:21:43.785Z,86.58
2018-07-26T06:22:43.586Z,86.19
2018-07-26T06:25:25.756Z,85.65
2018-07-26T06:26:25.797Z,84.58
2018-07-26T06:27:25.608Z,84.82
2018-07-26T06:28:25.546Z,83.75
2018-07-26T06:29:25.460Z,84.14
2018-07-26T06:30:25.384Z,84.00
2018-07-26T06:31:25.362Z,84.20
2018-07-26T06:32:31.355Z,82.45
2018-07-26T06:33:25.181Z,82.78
2018-07-26T06:34:25.201Z,83.13
2018-07-26T06:35:25.021Z,82.94
2018-07-26T06:36:25.023Z,83.07
2018-07-26T06:37:24.890Z,82.69
2018-07-26T06:38:24.836Z,81.48
2018-07-26T06:39:24.741Z,83.17
2018-07-26T06:40:24.743Z,81.87
2018-07-26T06:41:24.588Z,82.94
2018-07-26T06:42:24.595Z,83.07
2018-07-26T06:43:24.428Z,83.17
2018-07-26T06:44:24.457Z,81.91
2018-07-26T06:45:24.265Z,82.44
2018-07-26T06:46:24.278Z,81.57
2018-07-26T06:47:24.147Z,81.33
2018-07-26T06:48:24.171Z,81.27
2018-07-26T06:49:23.974Z,80.79
2018-07-26T06:52:06.293Z,80.25
2018-07-26T06:53:06.304Z,79.51
2018-07-26T06:54:06.156Z,79.41
2018-07-26T06:55:06.192Z,79.12
2018-07-26T06:56:06.037Z,78.38
2018-07-26T06:57:06.048Z,78.38
2018-07-26T06:58:05.827Z,76.64
2018-07-26T06:59:05.816Z,76.87
2018-07-26T07:00:05.674Z,76.77
2018-07-26T07:01:05.639Z,76.28
2018-07-26T07:02:05.566Z,74.86
2018-07-26T07:03:05.585Z,73.69
2018-07-26T07:04:05.383Z,73.50
2018-07-26T07:05:05.350Z,73.15
2018-07-26T07:06:05.309Z,73.24
2018-07-26T07:07:05.256Z,72.99
2018-07-26T07:08:05.117Z,72.50
2018-07-26T07:09:05.173Z,71.98
2018-07-26T07:10:04.956Z,71.82
2018-07-26T07:11:04.891Z,71.62
2018-07-26T07:12:04.803Z,71.37
2018-07-26T07:13:04.756Z,70.78
2018-07-26T07:14:04.657Z,71.70
2018-07-26T07:15:04.596Z,69.39
2018-07-26T07:16:04.512Z,68.65
2018-07-26T07:17:04.455Z,68.87
2018-07-26T07:18:04.391Z,66.93
2018-07-26T07:19:04.324Z,65.85
2018-07-26T07:20:04.237Z,66.27
2018-07-26T07:21:04.189Z,66.11
2018-07-26T07:22:04.099Z,65.43
2018-07-26T07:23:04.057Z,64.29
2018-07-26T07:24:03.959Z,62.56
2018-07-26T07:25:03.879Z,61.29
2018-07-26T07:26:03.850Z,61.65
2018-07-26T07:27:03.747Z,62.26
2018-07-26T07:28:03.662Z,61.82
2018-07-26T07:29:03.631Z,62.40
2018-07-26T07:30:03.522Z,62.50
2018-07-26T07:31:03.463Z,63.57
2018-07-26T07:32:03.399Z,62.40
2018-07-26T07:33:03.316Z,61.94
2018-07-26T07:34:03.278Z,60.37
2018-07-26T07:36:45.304Z,59.72
2018-07-26T07:37:45.229Z,60.31
2018-07-26T07:38:45.191Z,58.97
2018-07-26T07:39:45.089Z,60.44
2018-07-26T07:40:45.049Z,58.61
2018-07-26T07:41:44.957Z,58.34
2018-07-26T07:42:44.878Z,57.82
2018-07-26T07:43:44.839Z,59.07
2018-07-26T07:44:44.759Z,59.27
2018-07-26T07:45:44.685Z,59.29
2018-07-26T07:46:44.603Z,58.38
2018-07-26T07:47:44.610Z,60.38
2018-07-26T07:48:44.495Z,60.38
2018-07-26T07:49:44.414Z,59.53
2018-07-26T07:50:44.331Z,58.51
2018-07-26T07:51:44.265Z,56.63
2018-07-26T07:52:44.218Z,54.41
2018-07-26T07:53:44.159Z,54.77
2018-07-26T07:54:44.046Z,53.94
2018-07-26T07:55:43.991Z,52.75
2018-07-26T07:56:43.992Z,52.58
2018-07-26T07:57:43.857Z,51.72
2018-07-26T07:58:43.817Z,50.46
2018-07-26T07:59:43.800Z,48.35
2018-07-26T08:00:43.647Z,47.78
2018-07-26T08:01:43.589Z,47.41
2018-07-26T08:02:43.542Z,46.54
2018-07-26T08:05:25.928Z,46.30
2018-07-26T08:06:25.757Z,46.62
2018-07-26T08:07:25.713Z,46.94
2018-07-26T08:08:25.611Z,46.84
2018-07-26T08:09:25.538Z,45.56
2018-07-26T08:10:25.585Z,44.10
2018-07-26T08:11:25.408Z,44.42
2018-07-26T08:14:07.328Z,44.16
2018-07-26T08:15:08.343Z,43.77
2018-07-26T08:16:07.186Z,42.19
2018-07-26T08:17:07.119Z,43.07
2018-07-26T08:18:07.075Z,42.74
2018-07-26T08:19:06.994Z,43.47
2018-07-26T08:20:06.997Z,42.62
2018-07-26T08:22:48.823Z,42.08
2018-07-26T08:23:48.757Z,43.57
2018-07-26T08:24:48.689Z,41.79
2018-07-26T08:25:48.639Z,42.05
2018-07-26T08:26:48.575Z,42.30
2018-07-26T08:27:48.495Z,41.73
2018-07-26T08:28:48.418Z,42.03
2018-07-26T08:29:48.373Z,41.95
2018-07-26T08:30:48.443Z,43.12
2018-07-26T08:31:48.243Z,41.44
2018-07-26T08:32:48.182Z,39.56
2018-07-26T08:33:48.129Z,40.45
2018-07-26T08:34:48.057Z,40.33
2018-07-26T08:35:48.009Z,41.44
2018-07-26T08:36:47.927Z,41.04
2018-07-26T08:37:47.948Z,41.06
2018-07-26T08:38:47.798Z,39.99
2018-07-26T08:41:30.041Z,41.77
2018-07-26T08:44:11.834Z,43.59
2018-07-26T08:45:11.786Z,44.55
2018-07-26T08:46:11.709Z,44.90
2018-07-26T08:47:11.633Z,44.60
2018-07-26T08:48:11.582Z,42.99
2018-07-26T08:49:11.560Z,41.57
2018-07-26T08:52:54.858Z,38.15
2018-07-26T08:53:54.752Z,40.11
2018-07-26T08:54:54.725Z,38.82
2018-07-26T08:55:54.636Z,40.29
2018-07-26T08:56:54.645Z,38.60
2018-07-26T08:57:54.518Z,39.67
2018-07-26T08:58:54.498Z,38.82
2018-07-26T08:59:54.390Z,39.51
2018-07-26T09:00:54.335Z,39.50
2018-07-26T09:01:54.408Z,38.70
2018-07-26T09:02:54.206Z,39.08
2018-07-26T09:03:54.153Z,39.91
2018-07-26T09:04:54.096Z,38.53
2018-07-26T09:05:54.021Z,38.24
2018-07-26T09:06:53.987Z,38.32
2018-07-26T09:07:53.905Z,37.41
2018-07-26T09:08:53.871Z,37.24
2018-07-26T09:09:53.812Z,37.85
2018-07-26T09:10:53.817Z,38.27
2018-07-26T09:11:53.653Z,38.65
2018-07-26T09:12:53.617Z,40.07
2018-07-26T09:13:53.584Z,40.15
2018-07-26T09:16:35.821Z,36.66
2018-07-26T09:17:36.801Z,36.46
2018-07-26T09:18:35.711Z,37.27
2018-07-26T09:19:35.702Z,37.36
2018-07-26T09:22:23.357Z,40.94
2018-07-26T09:23:23.284Z,39.40
2018-07-26T09:24:23.247Z,40.19
2018-07-26T09:25:23.192Z,39.60
2018-07-26T09:26:23.191Z,38.84
2018-07-26T09:27:23.049Z,37.99
2018-07-26T09:28:22.952Z,38.24
2018-07-26T09:29:22.905Z,38.13
2018-07-26T09:30:22.855Z,36.46
2018-07-26T09:31:22.787Z,37.45
2018-07-26T09:32:22.721Z,36.28
2018-07-26T09:35:04.877Z,35.50
2018-07-26T09:36:04.784Z,35.22
2018-07-26T09:37:04.703Z,36.43
2018-07-26T09:38:04.642Z,35.21
2018-07-26T09:39:04.604Z,35.31
2018-07-26T09:40:04.571Z,35.47
2018-07-26T09:41:04.507Z,36.38
2018-07-26T09:43:46.378Z,35.21
2018-07-26T09:45:07.275Z,35.21
2018-07-26T09:45:46.292Z,35.04
2018-07-26T09:46:46.165Z,34.64
2018-07-26T09:47:46.082Z,34.56
2018-07-26T09:48:46.046Z,33.30
2018-07-26T09:49:45.995Z,34.38
2018-07-26T09:50:46.927Z,34.61
2018-07-26T09:51:45.862Z,34.92
2018-07-26T09:52:45.805Z,34.36
2018-07-26T09:53:45.752Z,33.76
2018-07-26T09:54:46.697Z,34.05
2018-07-26T09:55:45.672Z,34.53
2018-07-26T09:56:45.559Z,34.83
2018-07-26T09:57:45.498Z,34.53
2018-07-26T09:58:45.452Z,34.86
2018-07-26T09:59:45.399Z,34.80
2018-07-26T10:00:45.370Z,34.18
2018-07-26T10:01:45.273Z,34.46
2018-07-26T10:02:45.217Z,34.66
2018-07-26T10:03:45.177Z,32.67
2018-07-26T10:04:46.112Z,33.42
2018-07-26T10:05:45.031Z,33.42
2018-07-26T10:06:44.988Z,33.94
2018-07-26T10:07:44.916Z,33.62
2018-07-26T10:08:44.869Z,33.47
2018-07-26T10:09:44.804Z,35.37
2018-07-26T10:10:46.788Z,34.64
2018-07-26T10:11:44.771Z,34.66
2018-07-26T10:12:44.620Z,36.07
2018-07-26T10:13:44.572Z,34.76
2018-07-26T10:14:44.514Z,34.58
2018-07-26T10:15:44.473Z,34.38
2018-07-26T10:18:26.360Z,34.08
2018-07-26T10:19:27.414Z,34.10
2018-07-26T10:20:26.244Z,33.73
2018-07-26T10:21:26.160Z,35.19
2018-07-26T10:22:26.109Z,34.99
2018-07-26T10:23:26.064Z,35.49
2018-07-26T10:24:26.027Z,35.21
2018-07-26T10:25:25.966Z,34.13
2018-07-26T10:26:25.875Z,33.59
2018-07-26T10:27:26.844Z,33.42
2018-07-26T10:28:25.751Z,32.94
2018-07-26T10:29:25.735Z,33.06
2018-07-26T10:30:25.655Z,33.24
2018-07-26T10:31:26.617Z,33.03
2018-07-26T10:32:25.521Z,33.22
2018-07-26T10:33:25.464Z,32.94
2018-07-26T10:34:25.406Z,33.36
2018-07-26T10:35:25.351Z,32.87
2018-07-26T10:36:25.304Z,31.91
2018-07-26T10:39:07.346Z,33.40
2018-07-26T10:40:07.295Z,32.33
2018-07-26T10:41:07.264Z,32.35
2018-07-26T10:43:49.356Z,32.89
2018-07-26T10:46:31.365Z,32.39
2018-07-26T10:47:32.326Z,31.60
2018-07-26T10:48:31.259Z,30.83
2018-07-26T10:49:31.192Z,32.60
2018-07-26T10:50:31.120Z,32.33
2018-07-26T10:53:13.618Z,32.57
2018-07-26T10:54:14.321Z,31.21
2018-07-26T10:55:13.236Z,30.94
2018-07-26T10:56:13.199Z,31.04
2018-07-26T10:57:13.123Z,31.57
2018-07-26T10:58:13.092Z,33.16
2018-07-26T10:59:13.007Z,32.27
2018-07-26T11:00:12.965Z,33.09
2018-07-26T11:01:12.888Z,34.55
2018-07-26T11:02:12.847Z,35.04
2018-07-26T11:03:12.764Z,34.50
2018-07-26T11:04:12.740Z,33.95
2018-07-26T11:05:12.645Z,32.93
2018-07-26T11:06:12.610Z,32.17
2018-07-26T11:07:12.561Z,31.99
2018-07-26T11:08:12.488Z,29.54
2018-07-26T11:09:12.428Z,30.43
2018-07-26T11:10:12.365Z,29.84
2018-07-26T11:11:12.297Z,29.63
2018-07-26T11:12:13.291Z,29.93
2018-07-26T11:13:12.258Z,30.11
2018-07-26T11:14:12.140Z,30.76
2018-07-26T11:15:12.063Z,31.17
2018-07-26T11:16:12.006Z,32.32
2018-07-26T11:17:11.953Z,34.25
2018-07-26T11:18:11.927Z,34.28
2018-07-26T11:19:11.856Z,34.94
2018-07-26T11:20:11.783Z,34.67
2018-07-26T11:21:11.709Z,33.90
2018-07-26T11:22:11.682Z,33.56
2018-07-26T11:23:11.601Z,32.46
2018-07-26T11:24:11.631Z,32.30
2018-07-26T11:25:11.486Z,32.43
2018-07-26T11:26:11.430Z,32.84
2018-07-26T11:27:11.422Z,33.17
2018-07-26T11:28:11.350Z,31.72
2018-07-26T11:29:11.275Z,31.24
2018-07-26T11:30:11.186Z,31.21
2018-07-26T11:31:11.130Z,32.07
2018-07-26T11:32:11.085Z,32.40
2018-07-26T11:33:11.040Z,32.70
2018-07-26T11:34:10.971Z,33.31
2018-07-26T11:35:10.899Z,32.24
2018-07-26T11:36:10.846Z,33.24
2018-07-26T11:37:10.812Z,31.55
2018-07-26T11:38:10.719Z,31.27
2018-07-26T11:39:10.701Z,31.09
2018-07-26T11:40:10.610Z,32.48
2018-07-26T11:41:10.567Z,32.39
2018-07-26T11:42:10.483Z,29.52
2018-07-26T11:43:10.430Z,29.57
2018-07-26T11:44:11.472Z,32.27
2018-07-26T11:45:10.316Z,32.10
2018-07-26T11:46:10.287Z,31.52
2018-07-26T11:47:10.210Z,32.03
2018-07-26T11:48:10.153Z,32.24
2018-07-26T11:49:10.098Z,32.06
2018-07-26T11:50:10.076Z,30.89
2018-07-26T11:51:09.975Z,31.24
2018-07-26T11:52:09.917Z,31.90
2018-07-26T11:53:09.874Z,31.60
2018-07-26T11:54:10.826Z,32.39
2018-07-26T11:55:09.773Z,31.88
2018-07-26T11:56:09.684Z,33.33
2018-07-26T11:57:09.613Z,33.13
2018-07-26T11:59:51.965Z,32.42
2018-07-26T12:00:51.826Z,31.72
2018-07-26T12:01:51.773Z,31.71
2018-07-26T12:02:51.699Z,32.43
2018-07-26T12:03:51.652Z,31.15
2018-07-26T12:04:51.588Z,30.97
2018-07-26T12:05:51.527Z,30.74
2018-07-26T12:06:51.454Z,30.55
2018-07-26T12:07:51.394Z,30.81
2018-07-26T12:10:33.392Z,32.32
2018-07-26T12:11:33.310Z,33.23
2018-07-26T12:12:33.250Z,32.64
2018-07-26T12:13:33.183Z,33.58
2018-07-26T12:14:33.134Z,33.39
2018-07-26T12:15:34.094Z,33.52
2018-07-26T12:16:32.995Z,35.00
2018-07-26T12:17:32.968Z,33.33
2018-07-26T12:18:32.877Z,33.79
2018-07-26T12:21:15.001Z,35.09
2018-07-26T12:22:14.814Z,34.59
2018-07-26T12:23:14.744Z,34.28
2018-07-26T12:25:56.875Z,35.53
2018-07-26T12:26:57.880Z,35.24
2018-07-26T12:27:56.742Z,35.99
2018-07-26T12:30:38.890Z,35.81
2018-07-26T12:31:38.834Z,35.41
2018-07-26T12:32:38.737Z,35.43
2018-07-26T12:33:38.676Z,35.79
2018-07-26T12:34:38.605Z,35.97
2018-07-26T12:35:38.563Z,36.38
2018-07-26T12:36:38.501Z,35.81
2018-07-26T12:37:38.424Z,36.21
2018-07-26T12:38:38.354Z,35.31
2018-07-26T12:39:38.342Z,34.94
2018-07-26T12:40:38.230Z,35.02
2018-07-26T12:41:38.210Z,35.33
2018-07-26T12:42:38.109Z,34.97
2018-07-26T12:43:38.075Z,34.48
2018-07-26T12:44:37.972Z,34.30
2018-07-26T12:47:19.994Z,34.63
2018-07-26T12:50:01.879Z,32.76
2018-07-26T12:51:01.826Z,33.54
2018-07-26T12:52:01.751Z,33.90
2018-07-26T12:53:01.700Z,34.39
2018-07-26T12:54:01.618Z,34.38
2018-07-26T12:55:01.569Z,34.67
2018-07-26T12:56:01.499Z,34.56
2018-07-26T12:57:01.439Z,34.78
2018-07-26T12:58:01.380Z,34.38
2018-07-26T12:59:03.316Z,34.18
2018-07-26T13:00:01.240Z,34.64
2018-07-26T13:01:01.219Z,35.04
2018-07-26T13:02:01.093Z,35.35
2018-07-26T13:03:03.054Z,34.76
2018-07-26T13:04:00.984Z,34.95
2018-07-26T13:06:42.901Z,35.33
2018-07-26T13:07:44.901Z,36.02
2018-07-26T13:08:42.771Z,35.99
2018-07-26T13:11:24.888Z,35.91
2018-07-26T13:12:24.878Z,35.93
2018-07-26T13:13:24.771Z,35.93
2018-07-26T13:14:24.702Z,35.05
2018-07-26T13:15:24.642Z,35.73
2018-07-26T13:18:06.887Z,35.22
2018-07-26T13:19:07.855Z,35.40
2018-07-26T13:20:06.766Z,35.88
2018-07-26T13:21:06.704Z,35.96
2018-07-26T13:22:06.644Z,36.74
2018-07-26T13:24:48.918Z,36.84
2018-07-26T13:27:30.909Z,36.33
2018-07-26T13:28:31.868Z,37.04
2018-07-26T13:29:30.908Z,37.12
2018-07-26T13:30:30.787Z,37.12
2018-07-26T13:31:30.627Z,37.02
2018-07-26T13:34:12.920Z,36.63
2018-07-26T13:36:54.896Z,36.90
2018-07-26T13:37:54.843Z,36.71
2018-07-26T13:38:54.765Z,36.82
2018-07-26T13:39:54.781Z,37.12
2018-07-26T13:40:54.644Z,37.81
2018-07-26T13:41:54.565Z,37.81
2018-07-26T13:42:54.489Z,38.49
2018-07-26T13:43:54.433Z,38.01
2018-07-26T13:44:54.386Z,38.62
2018-07-26T13:47:36.399Z,38.22
2018-07-26T13:48:36.350Z,38.71
2018-07-26T13:49:36.279Z,38.02
2018-07-26T13:50:36.215Z,36.94
2018-07-26T13:51:36.137Z,37.22
2018-07-26T13:54:18.438Z,36.04
2018-07-26T13:55:18.377Z,36.53
2018-07-26T13:56:18.284Z,37.22
2018-07-26T13:57:18.209Z,37.53
2018-07-26T13:58:18.165Z,36.92
2018-07-26T13:59:18.070Z,38.32
2018-07-26T14:00:18.019Z,37.93
2018-07-26T14:01:17.938Z,37.24
2018-07-26T14:02:17.866Z,36.92
2018-07-26T14:03:17.804Z,37.12
2018-07-26T14:04:17.738Z,37.73
2018-07-26T14:05:18.688Z,37.22
2018-07-26T14:06:17.592Z,37.02
2018-07-26T14:07:17.540Z,36.94
2018-07-26T14:08:17.469Z,36.55
2018-07-26T14:09:17.412Z,36.74
2018-07-26T14:10:17.355Z,36.66
2018-07-26T14:11:17.280Z,36.17
2018-07-26T14:12:17.196Z,36.96
2018-07-26T14:13:17.141Z,37.65
2018-07-26T14:14:17.062Z,35.97
2018-07-26T14:15:17.125Z,35.99
2018-07-26T14:16:16.930Z,36.86
2018-07-26T14:17:16.864Z,37.26
2018-07-26T14:18:16.807Z,36.25
2018-07-26T14:19:16.751Z,37.04
2018-07-26T14:20:16.709Z,36.84
2018-07-26T14:21:17.627Z,38.60
2018-07-26T14:22:16.536Z,37.41
2018-07-26T14:23:16.469Z,37.02
2018-07-26T14:24:16.424Z,36.82
2018-07-26T14:25:16.337Z,37.12
2018-07-26T14:26:16.292Z,37.01
2018-07-26T14:27:16.232Z,37.20
2018-07-26T14:28:16.164Z,37.79
2018-07-26T14:29:16.096Z,39.47
2018-07-26T14:30:16.003Z,37.79
2018-07-26T14:31:15.972Z,38.48
2018-07-26T14:32:15.853Z,37.57
2018-07-26T14:34:57.916Z,38.66
2018-07-26T14:35:57.911Z,38.26
2018-07-26T14:36:57.789Z,39.64
2018-07-26T14:39:39.939Z,37.18
2018-07-26T14:40:39.862Z,37.08
2018-07-26T14:41:39.869Z,37.57
2018-07-26T14:42:39.749Z,37.57
2018-07-26T14:43:39.722Z,37.76
2018-07-26T14:44:39.590Z,37.65
2018-07-26T14:45:39.521Z,38.85
2018-07-26T14:46:40.481Z,39.62
2018-07-26T14:47:39.400Z,39.52
2018-07-26T14:48:39.319Z,38.24
2018-07-26T14:49:39.248Z,39.05
2018-07-26T14:52:21.480Z,40.92
2018-07-26T14:53:21.369Z,38.44
2018-07-26T14:54:21.305Z,38.84
2018-07-26T14:55:21.234Z,38.64
2018-07-26T14:56:21.159Z,40.70
2018-07-26T14:57:21.132Z,42.18
2018-07-26T14:58:21.083Z,40.51
2018-07-26T14:59:20.958Z,38.84
2018-07-26T15:00:20.884Z,40.51
2018-07-26T15:01:20.833Z,41.88
2018-07-26T15:02:20.775Z,39.13
2018-07-26T15:03:20.702Z,40.21
2018-07-26T15:04:20.611Z,39.03